Pine Neck, New York
Current Conditions -  °F | °C
As of 5:45 AM on Friday 24 Oct 2014 (Local Time) from KFOK Reporting Station
Overcast Overcast  
Wind Chill: 52°   Ceiling: 3200
Heat Index: 52°   Visibility: 10mi
Dew Point: 46°   Wind: 15mph
Humidity: 80%   Direction: 320°NW
Pressure: 29.74"   Gusts: NA
Location:  40.9692°N, 72.306°W
Report Text: KFOK 240945Z 32013KT 10SM SCT021 OVC032 11/08 A2974 RMK AO2 T01110078
Loading
Personal Weather Stations






























Interactive Weather Map New forecast layout! Learn more

10-Day Weather Forecast

Advertisements
Track Severe Weather on mobile